NCAR-RAP Real-Time Weather Data

Output produced by METARs form (26 June 2016  20:45 UTC)
found at http://weather.rap.ucar.edu/surface/
 
Conditions at: K4O4 observed 26 June 2016  20:35 UTC
Temperature: 34.0°C (93°F)
Dewpoint: 21.0°C (70°F) [RH = 47%]
Pressure (altimeter): 30.07 inches Hg (1018.4 mb)
Winds: from the S (190 degrees) at 8 MPH (7 knots; 3.6 m/s)
Visibility: 10 or more miles (16+ km)
Ceiling: at least 12,000 feet AGL
Clouds: sky clear below 12,000 feet AGL
Present Weather: automated observation with no human augmentation;
there may or may not be significant weather present at this time
K4O4 262035Z AUTO 19007KT 10SM CLR 34/21 A3007 RMK AO2